METAR Data
IDs: Format: Raw Decoded Include TAF

Data at: 1932 UTC 26 Sep 2021

LSZA 261920Z AUTO VRB01KT 4500 BR BKN005 18/17 Q1020